Terminal Aerodrome Forecast
Issued by NWS

Home | Current Version | Previous Version | Graphics & Text | Print | Product List | Glossary On
Versions: 1 2 3 4 5 6 7 8 9 10 11 12 13 14 15
496
FTUS43 KGRB 272159 AAA
TAFAUW
TAF AMD
KAUW 272159Z 2722/2818 27013G21KT P6SM OVC015
      TEMPO 2722/2723 1 1/2SM -SHSN
     FM280000 26011G20KT P6SM OVC019
     FM280300 26009KT P6SM BKN018
     FM281100 26008KT P6SM SCT020 SCT100=

USA.gov is the U.S. government's official web portal to all federal, state and local government web resources and services.